Alpine, TX

7:38 AM CST on January 23, 2017 (GMT -0600)
Alpine

Weather History for KE38 - July, 2013

Change the Weather History Date:

Saturday, July 13, 2013

  Actual Average (KMRF) Record (KMRF)
Temperature  
Mean Temperature 77 °F -  
Max Temperature 92 °F 85 °F 96 °F (2006)
Min Temperature 63 °F 59 °F 55 °F (2003)
Cooling Degree Days 12    
Growing Degree Days 27 (Base 50)    
Moisture  
Dew Point 50 °F    
Average Humidity 37    
Maximum Humidity 63    
Minimum Humidity 21    
Precipitation  
Precipitation 0.00 in - - ()
Sea Level Pressure  
Sea Level Pressure 30.17 in    
Wind  
Wind Speed 5 mph (SE)    
Max Wind Speed 16 mph    
Max Gust Speed 22 mph    
Visibility 10 miles    
Events      
Averages and records for this station are not official NWS values.
T = Trace of Precipitation, MM = Missing Value Source: NWS Daily Summary

Daily Weather History Graph

Daily Weather History Graph

Search for Another Location

Airport or City:

Trip Planner

Search our weather history database for the weather conditions in past years. The results will help you decide how hot, cold, wet, or windy it might be!

Date:

Astronomy

Jul. 13, 2013 Rise Set
Actual Time 7:02 AM CDT 8:58 PM CDT
Civil Twilight 6:35 AM CDT 9:25 PM CDT
Nautical Twilight 6:02 AM CDT 9:58 PM CDT
Astronomical Twilight 5:27 AM CDT 10:33 PM CDT
Moon 11:54 AM CDT (7/13) No Moon Set
Length of Visible Light 14h 50m
Length of Day
13h 56m
Waxing Crescent, 26% of the Moon is Illuminated
Jul 13
Waxing Crescent
Jul 15
First Quarter
Jul 22
Full
Jul 29
Last Quarter
Aug 6
New

Hourly Weather History & Observations

Time (CDT) Temp. Dew Point Humidity Pressure Visibility Wind Dir Wind Speed Gust Speed Precip Events Conditions
12:15 AM 76.3 °F 53.2 °F 45% 30.16 in 10.0 mi Calm Calm - N/A   Clear
12:35 AM 75.6 °F 53.1 °F 45% 30.16 in 10.0 mi South 4.6 mph - N/A   Clear
12:55 AM 75.7 °F 53.2 °F 45% 30.17 in 10.0 mi Calm Calm - N/A   Clear
1:15 AM 74.8 °F 53.2 °F 47% 30.17 in 10.0 mi Calm Calm - N/A   Clear
1:35 AM 74.7 °F 53.6 °F 48% 30.17 in 10.0 mi Calm Calm - N/A   Clear
1:55 AM 74.3 °F 53.2 °F 48% 30.17 in 10.0 mi SE 5.8 mph - N/A   Clear
2:15 AM 73.4 °F 53.2 °F 49% 30.17 in 10.0 mi ESE 3.5 mph - N/A   Clear
2:35 AM 73.2 °F 53.1 °F 49% 30.17 in 10.0 mi SSE 5.8 mph - N/A   Clear
2:55 AM 72.7 °F 52.7 °F 49% 30.17 in 10.0 mi Calm Calm - N/A   Clear
3:15 AM 72.5 °F 52.7 °F 50% 30.17 in 10.0 mi South 3.5 mph - N/A   Clear
3:35 AM 73.4 °F 52.7 °F 48% 30.17 in 10.0 mi South 4.6 mph - N/A   Clear
3:55 AM 73.2 °F 52.7 °F 48% 30.17 in 10.0 mi South 6.9 mph - N/A   Clear
4:15 AM 73.4 °F 52.3 °F 48% 30.16 in 10.0 mi South 6.9 mph - N/A   Clear
4:35 AM 73.2 °F 52.0 °F 47% 30.16 in 10.0 mi SSE 4.6 mph - N/A   Clear
4:55 AM 72.1 °F 51.8 °F 49% 30.16 in 10.0 mi Calm Calm - N/A   Clear
5:15 AM 68.4 °F 51.4 °F 55% 30.16 in 10.0 mi WSW 3.5 mph - N/A   Clear
5:35 AM 68.5 °F 51.8 °F 55% 30.17 in 10.0 mi Calm Calm - N/A   Clear
5:55 AM 65.8 °F 50.9 °F 58% 30.17 in 10.0 mi Calm Calm - N/A   Clear
6:15 AM 64.4 °F 50.4 °F 60% 30.17 in 10.0 mi WSW 6.9 mph - N/A   Clear
6:35 AM 64.9 °F 50.9 °F 60% 30.18 in 10.0 mi SSW 6.9 mph - N/A   Clear
6:55 AM 63.5 °F 50.5 °F 63% 30.17 in 10.0 mi West 8.1 mph - N/A   Clear
7:15 AM 64.9 °F 51.4 °F 62% 30.19 in 10.0 mi WSW 8.1 mph - N/A   Clear
7:35 AM 64.9 °F 50.9 °F 60% 30.19 in 10.0 mi Calm Calm - N/A   Clear
7:55 AM 68.0 °F 51.3 °F 55% 30.19 in 10.0 mi Calm Calm - N/A   Clear
8:15 AM 71.4 °F 52.2 °F 51% 30.20 in 10.0 mi Calm Calm - N/A   Clear
8:35 AM 74.1 °F 52.9 °F 47% 30.20 in 10.0 mi South 4.6 mph - N/A   Clear
8:55 AM 75.2 °F 52.9 °F 46% 30.21 in 10.0 mi SSE 3.5 mph - N/A   Clear
9:15 AM 77.2 °F 52.9 °F 43% 30.22 in 10.0 mi SSE 3.5 mph - N/A   Clear
9:35 AM 78.8 °F 52.0 °F 39% 30.22 in 10.0 mi SSE 5.8 mph - N/A   Clear
9:55 AM 79.3 °F 52.2 °F 39% 30.22 in 10.0 mi South 3.5 mph - N/A   Clear
10:15 AM 80.4 °F 52.0 °F 37% 30.22 in 10.0 mi South 3.5 mph - N/A   Clear
10:35 AM 82.0 °F 51.1 °F 34% 30.21 in 10.0 mi SSE 5.8 mph - N/A   Clear
10:55 AM 82.9 °F 50.9 °F 33% 30.21 in 10.0 mi SSE 9.2 mph - N/A   Clear
11:15 AM 83.7 °F 49.6 °F 31% 30.21 in 10.0 mi SE 5.8 mph - N/A   Clear
11:35 AM 85.5 °F 49.3 °F 28% 30.20 in 10.0 mi SE 5.8 mph - N/A   Clear
11:55 AM 85.5 °F 49.1 °F 28% 30.20 in 10.0 mi SSE 4.6 mph - N/A   Clear
12:15 PM 86.0 °F 48.7 °F 27% 30.20 in 10.0 mi South 4.6 mph - N/A   Clear
12:35 PM 87.3 °F 48.9 °F 27% 30.20 in 10.0 mi SE 9.2 mph - N/A   Clear
12:55 PM 86.2 °F 48.2 °F 27% 30.20 in 10.0 mi North 4.6 mph - N/A   Clear
1:15 PM 87.8 °F 48.6 °F 26% 30.19 in 10.0 mi ESE 10.4 mph - N/A   Clear
1:35 PM 88.3 °F 48.6 °F 25% 30.19 in 10.0 mi South 11.5 mph 17.3 mph N/A   Scattered Clouds
1:55 PM 90.0 °F 48.2 °F 24% 30.18 in 10.0 mi SSE 10.4 mph 18.4 mph N/A   Scattered Clouds
2:15 PM 89.6 °F 47.5 °F 23% 30.17 in 10.0 mi SE 15.0 mph 18.4 mph N/A   Scattered Clouds
2:35 PM 89.4 °F 48.9 °F 25% 30.17 in 10.0 mi SE 3.5 mph 17.3 mph N/A   Scattered Clouds
2:55 PM 89.4 °F 47.5 °F 23% 30.16 in 10.0 mi SE 13.8 mph 19.6 mph N/A   Mostly Cloudy
3:15 PM 90.9 °F 47.7 °F 23% 30.16 in 10.0 mi East 6.9 mph 17.3 mph N/A   Scattered Clouds
3:35 PM 89.8 °F 48.2 °F 24% 30.15 in 10.0 mi ESE 12.7 mph 17.3 mph N/A   Clear
3:55 PM 91.4 °F 48.0 °F 22% 30.15 in 10.0 mi ESE 13.8 mph 18.4 mph N/A   Clear
4:15 PM 90.5 °F 46.8 °F 22% 30.14 in 10.0 mi SSE 11.5 mph 16.1 mph N/A   Clear
4:35 PM 90.7 °F 46.0 °F 21% 30.13 in 10.0 mi SSE 5.8 mph 17.3 mph N/A   Clear
4:55 PM 90.0 °F 46.8 °F 22% 30.13 in 10.0 mi SSE 9.2 mph - N/A   Clear
5:15 PM 91.2 °F 49.1 °F 24% 30.13 in 10.0 mi East 9.2 mph - N/A   Clear
5:35 PM 90.1 °F 48.6 °F 24% 30.12 in 10.0 mi SE 9.2 mph - N/A   Clear
5:55 PM 91.0 °F 48.0 °F 23% 30.12 in 10.0 mi East 10.4 mph 18.4 mph N/A   Clear
6:15 PM 91.0 °F 47.7 °F 22% 30.11 in 10.0 mi SE 9.2 mph 17.3 mph N/A   Scattered Clouds
6:35 PM 90.7 °F 47.1 °F 22% 30.11 in 10.0 mi East 8.1 mph - N/A   Clear
6:55 PM 89.6 °F 46.4 °F 22% 30.11 in 10.0 mi ESE 12.7 mph 17.3 mph N/A   Clear
7:15 PM 89.1 °F 46.4 °F 23% 30.11 in 10.0 mi ESE 10.4 mph - N/A   Clear
7:35 PM 88.3 °F 46.8 °F 24% 30.11 in 10.0 mi ESE 13.8 mph - N/A   Clear
7:55 PM 87.6 °F 46.9 °F 24% 30.11 in 10.0 mi ESE 15.0 mph - N/A   Clear
8:15 PM 86.2 °F 46.9 °F 25% 30.11 in 10.0 mi ESE 15.0 mph 19.6 mph N/A   Clear
8:55 PM 83.5 °F 46.9 °F 28% 30.12 in 10.0 mi ESE 11.5 mph 16.1 mph N/A   Clear
9:15 PM 82.4 °F 46.6 °F 28% 30.12 in 10.0 mi SE 11.5 mph - N/A   Clear
9:35 PM 81.3 °F 46.0 °F 29% 30.13 in 10.0 mi SE 11.5 mph - N/A   Clear
9:55 PM 80.6 °F 46.4 °F 30% 30.14 in 10.0 mi ESE 9.2 mph - N/A   Clear
10:15 PM 79.7 °F 46.6 °F 31% 30.15 in 10.0 mi SE 9.2 mph 16.1 mph N/A   Clear
10:35 PM 79.3 °F 46.4 °F 31% 30.16 in 10.0 mi SE 10.4 mph 16.1 mph N/A   Clear
10:55 PM 78.8 °F 47.3 °F 33% 30.16 in 10.0 mi SE 12.7 mph - N/A   Clear
11:15 PM 78.3 °F 48.0 °F 34% 30.16 in 10.0 mi SE 16.1 mph 20.7 mph N/A   Clear
11:35 PM 77.9 °F 48.4 °F 35% 30.17 in 10.0 mi SE 13.8 mph 21.9 mph N/A   Clear
11:55 PM 77.0 °F 48.4 °F 36% 30.17 in 10.0 mi SE 9.2 mph - N/A   Clear